Accueil
METAR-TAF:

METAR-TAF

Aéroports :

Base aérienne 116 Luxeuil-Saint Sauveur

Luxeuil-les-Bains, France

latitude: 47-47N, longitude: 006-21E, altitude: 278 m

Observation

Le bulletin a été fait il y a 10 minutes, à 12:30 UTC
Vent 7 kt de ouest/nord-ouest, variant entre sud-ouest et nord
Température 30°C
Humidité 35%
Pression 1017 hPa
Visibilité 10 km ou plus

METAR: LFSX 181230Z AUTO 29007KT 230V350 9999 NCD 30/13 Q1017 NOSIG

Heure: 14:40 (12:40 UTC)

Prévision

Le bulletin a été fait il y a 4 heures et 40 minutes, à 08:00 UTC
Prévision valable du 18 à 09 UTC au 19 à 09 UTC
Vent 3 kt de direction variable
Visibilité 10 km ou plus
pas de nuages en-dessous de 1500 mètres et pas de cumulonimbus.

TAF: LFSX 180800Z 1809/1909 VRB03KT CAVOK

Observations et prévisions météorologiques de plus de 4000 aéroports (messages METAR et TAF).

Les stations disponibles sont représentées par des disques jaunes et rouges sur la carte.

Passer la souris dessus pour voir le nom de la station.

Cliquer dessus pour voir les observations et prévisions météorologiques.

Pour changer de carte: cliquez sur les boutons verts avec une croix noire pour zoomer, sur le bouton vert avec un tiret pour effectuer un zoom arrière, ou sur les flèches vertes pour les cartes adjacentes.


METAR-TAF: